Time;durP1;ratioP1;P1;durP2;ratioP2;P2;SDS_P1;SDS_P2;PMS_P1;PMS_P2;Temp;Humidity;BMP_temperature;BMP_pressure;BME280_temperature;BME280_humidity;BME280_pressure;Samples;Min_cycle;Max_cycle;Signal;HPM_P1;HPM_P2
2022/10/28 00:02:17;;;;;;;21.13;6.50;;;17.10;99.90;;;;;;5012365;28;20043;-68
2022/10/28 00:04:43;;;;;;;21.63;5.55;;;17.20;99.90;;;;;;5012528;28;20034;-69
2022/10/28 00:07:09;;;;;;;27.23;6.97;;;17.40;99.90;;;;;;5012219;28;20024;-68
2022/10/28 00:09:35;;;;;;;23.52;5.80;;;17.60;99.90;;;;;;5012503;28;20116;-68
2022/10/28 00:12:00;;;;;;;13.75;5.32;;;17.60;99.90;;;;;;5012103;28;20092;-69
2022/10/28 00:14:26;;;;;;;15.63;5.57;;;17.70;99.90;;;;;;5012595;28;20026;-68
2022/10/28 00:16:53;;;;;;;25.65;6.05;;;17.70;99.90;;;;;;4994821;28;20022;-68
2022/10/28 00:19:18;;;;;;;18.75;6.53;;;17.70;99.90;;;;;;5010738;28;20084;-68
2022/10/28 00:21:44;;;;;;;19.80;5.55;;;17.60;99.90;;;;;;5012077;28;20025;-68
2022/10/28 00:24:12;;;;;;;21.48;6.60;;;17.50;99.90;;;;;;5012183;28;20406;-69
2022/10/28 00:26:41;;;;;;;20.10;5.43;;;17.70;99.90;;;;;;5011743;28;20034;-69
2022/10/28 00:29:10;;;;;;;15.95;5.57;;;17.70;99.90;;;;;;5012394;28;20025;-69
2022/10/28 00:31:37;;;;;;;15.57;5.88;;;17.80;99.90;;;;;;5012045;28;20042;-69
2022/10/28 00:34:04;;;;;;;21.23;5.78;;;17.80;99.90;;;;;;5014599;28;20104;-68
2022/10/28 00:36:32;;;;;;;19.60;5.68;;;17.80;99.90;;;;;;5015479;28;20033;-68
2022/10/28 00:38:59;;;;;;;10.50;4.20;;;17.70;99.90;;;;;;5015685;28;20089;-68
2022/10/28 00:41:29;;;;;;;19.20;5.60;;;17.70;99.90;;;;;;5015294;28;20033;-68
2022/10/28 00:43:58;;;;;;;15.63;5.38;;;17.80;99.90;;;;;;5015599;28;20033;-68
2022/10/28 00:46:33;;;;;;;20.08;5.30;;;17.80;99.90;;;;;;5015531;28;20022;-68
2022/10/28 00:49:19;;;;;;;15.10;4.63;;;17.80;99.90;;;;;;5015644;28;20048;-68
2022/10/28 00:51:47;;;;;;;17.35;5.00;;;17.80;99.90;;;;;;5003815;28;20046;-68
2022/10/28 00:54:15;;;;;;;18.00;4.93;;;17.80;99.90;;;;;;4997465;28;20030;-69
2022/10/28 00:56:48;;;;;;;24.73;6.30;;;17.90;99.90;;;;;;5015265;28;20025;-68
2022/10/28 00:59:23;;;;;;;12.55;5.25;;;17.80;99.90;;;;;;5015294;28;20116;-69
2022/10/28 01:01:49;;;;;;;17.77;5.40;;;17.80;99.90;;;;;;5015194;28;20053;-68
2022/10/28 01:04:15;;;;;;;16.73;4.82;;;17.80;99.90;;;;;;4997792;28;20483;-68
2022/10/28 01:06:41;;;;;;;27.02;5.38;;;17.80;99.90;;;;;;5015063;28;20029;-68
2022/10/28 01:09:07;;;;;;;18.10;4.80;;;17.70;99.90;;;;;;5014995;28;20033;-68
2022/10/28 01:11:57;;;;;;;23.27;5.65;;;17.80;99.90;;;;;;5014726;28;20034;-69
2022/10/28 01:14:49;;;;;;;16.58;5.15;;;17.70;99.90;;;;;;5015207;28;20422;-69
2022/10/28 01:17:33;;;;;;;20.10;4.95;;;17.70;99.90;;;;;;4985265;28;20048;-68
2022/10/28 01:20:17;;;;;;;15.23;4.15;;;17.70;99.90;;;;;;5014740;28;20136;-69
2022/10/28 01:23:10;;;;;;;10.07;4.55;;;17.70;99.90;;;;;;4997158;28;20048;-68
2022/10/28 01:25:54;;;;;;;19.05;5.18;;;17.70;99.90;;;;;;5001559;28;20033;-68
2022/10/28 01:28:35;;;;;;;17.65;5.00;;;17.70;99.90;;;;;;4996994;28;20401;-69
2022/10/28 01:31:29;;;;;;;21.27;5.27;;;17.70;99.90;;;;;;5014788;28;20042;-69
2022/10/28 01:34:23;;;;;;;8.73;4.10;;;17.60;99.90;;;;;;5014551;28;20026;-69
2022/10/28 01:37:05;;;;;;;21.95;5.75;;;17.60;99.90;;;;;;5014793;28;20048;-68
2022/10/28 01:39:45;;;;;;;16.25;5.18;;;17.60;99.90;;;;;;4984911;28;20021;-68
2022/10/28 01:42:27;;;;;;;28.98;5.75;;;17.60;99.90;;;;;;5014409;28;20072;-69
2022/10/28 01:44:53;;;;;;;;;;;17.60;99.90;;;;;;5013897;28;20052;-68
2022/10/28 01:47:26;;;;;;;14.52;5.20;;;17.50;99.90;;;;;;5014433;28;20342;-69
2022/10/28 01:50:06;;;;;;;12.07;4.82;;;17.50;99.90;;;;;;5014369;28;20026;-68
2022/10/28 01:52:33;;;;;;;17.17;5.50;;;17.50;99.90;;;;;;5013919;28;20113;-68
2022/10/28 01:55:32;;;;;;;19.00;5.03;;;17.50;99.90;;;;;;5014399;28;20026;-68
2022/10/28 01:58:00;;;;;;;16.88;5.45;;;17.50;99.90;;;;;;5002931;28;20044;-69
2022/10/28 02:00:27;;;;;;;24.27;5.53;;;17.60;99.90;;;;;;5014358;28;20030;-68
2022/10/28 02:02:55;;;;;;;21.95;4.88;;;17.60;99.90;;;;;;4996175;28;20034;-68
2022/10/28 02:05:46;;;;;;;14.65;4.78;;;17.60;99.90;;;;;;5014248;28;20121;-68
2022/10/28 02:08:17;;;;;;;18.35;5.32;;;17.60;99.90;;;;;;4998612;28;20034;-68
2022/10/28 02:10:46;;;;;;;22.67;5.20;;;17.60;99.90;;;;;;5014015;28;20026;-68
2022/10/28 02:13:13;;;;;;;17.10;5.57;;;17.60;99.90;;;;;;4996167;28;20061;-69
2022/10/28 02:16:06;;;;;;;15.43;5.40;;;17.60;99.90;;;;;;4996427;28;20032;-69
2022/10/28 02:19:00;;;;;;;19.27;5.30;;;17.70;99.90;;;;;;4996098;28;20029;-68
2022/10/28 02:21:32;;;;;;;22.50;5.63;;;17.70;99.90;;;;;;4998648;28;20467;-68
2022/10/28 02:24:26;;;;;;;14.05;4.80;;;17.70;99.90;;;;;;5013919;28;20061;-68
2022/10/28 02:27:11;;;;;;;20.92;4.63;;;17.70;99.90;;;;;;4990228;28;20052;-68
2022/10/28 02:29:43;;;;;;;20.98;4.07;;;17.70;99.90;;;;;;5013592;28;20493;-68
2022/10/28 02:32:17;;;;;;;19.27;5.05;;;17.70;99.90;;;;;;5013316;28;20038;-68
2022/10/28 02:34:46;;;;;;;25.63;4.85;;;17.80;99.90;;;;;;5013594;28;20142;-68
2022/10/28 02:37:21;;;;;;;20.15;4.72;;;17.80;99.90;;;;;;5013178;28;20041;-68
2022/10/28 02:39:53;;;;;;;19.58;5.20;;;17.80;99.90;;;;;;5013341;28;20382;-68
2022/10/28 02:42:30;;;;;;;19.52;5.03;;;17.80;99.90;;;;;;5013585;28;20061;-68
2022/10/28 02:45:03;;;;;;;20.02;6.03;;;17.70;99.90;;;;;;5013328;28;20479;-68
2022/10/28 02:47:33;;;;;;;15.93;4.15;;;17.80;99.90;;;;;;5013303;28;20228;-68
2022/10/28 02:50:02;;;;;;;24.02;5.40;;;17.70;99.90;;;;;;5013104;28;20041;-69
2022/10/28 02:52:30;;;;;;;17.33;4.50;;;17.50;99.90;;;;;;5013248;28;20553;-69
2022/10/28 02:55:02;;;;;;;14.07;4.82;;;17.50;99.90;;;;;;5013188;28;20377;-68
2022/10/28 02:57:37;;;;;;;14.93;5.05;;;17.50;99.90;;;;;;5012915;28;20172;-69
2022/10/28 03:00:18;;;;;;;14.23;4.45;;;17.50;99.90;;;;;;5013252;28;20033;-68
2022/10/28 03:02:43;;;;;;;19.65;5.10;;;17.30;99.90;;;;;;4995224;28;20026;-68
2022/10/28 03:05:09;;;;;;;15.05;4.78;;;17.30;99.90;;;;;;5012841;28;20489;-68
2022/10/28 03:07:35;;;;;;;18.77;5.22;;;17.40;99.90;;;;;;4995372;28;20033;-68
2022/10/28 03:10:01;;;;;;;19.65;5.05;;;17.50;99.90;;;;;;5013138;28;20125;-68
2022/10/28 03:12:27;;;;;;;18.77;4.60;;;17.60;99.90;;;;;;5013080;28;20485;-69
2022/10/28 03:14:52;;;;;;;17.58;4.88;;;17.60;99.90;;;;;;4994760;28;20469;-68
2022/10/28 03:17:18;;;;;;;18.15;5.22;;;17.50;99.90;;;;;;5013216;28;20088;-68
2022/10/28 03:19:44;;;;;;;20.27;4.93;;;17.40;99.90;;;;;;5012512;28;20098;-69
2022/10/28 03:22:10;;;;;;;18.10;5.60;;;17.40;99.90;;;;;;4995462;28;20065;-68
2022/10/28 03:24:35;;;;;;;16.77;5.22;;;17.20;99.90;;;;;;5012701;28;20064;-68
2022/10/28 03:27:01;;;;;;;14.48;5.53;;;17.30;99.90;;;;;;5012484;28;20025;-71
2022/10/28 03:29:27;;;;;;;16.45;5.10;;;17.30;99.90;;;;;;5015738;28;20026;-71
2022/10/28 03:31:52;;;;;;;15.88;4.50;;;17.30;99.90;;;;;;5012538;28;20034;-71
2022/10/28 03:34:18;;;;;;;23.67;4.88;;;17.30;99.90;;;;;;5012447;28;20050;-71
2022/10/28 03:36:44;;;;;;;18.42;5.53;;;17.20;99.90;;;;;;4995443;28;20381;-71
2022/10/28 03:39:10;;;;;;;16.73;5.05;;;17.20;99.90;;;;;;5012775;28;20075;-71
2022/10/28 03:41:35;;;;;;;16.65;4.70;;;17.20;99.90;;;;;;5012744;28;20033;-71
2022/10/28 03:44:01;;;;;;;17.05;4.25;;;17.30;99.90;;;;;;5012646;28;20037;-71
2022/10/28 03:46:27;;;;;;;19.15;4.60;;;17.30;99.90;;;;;;5012737;28;20025;-71
2022/10/28 03:48:53;;;;;;;16.15;4.70;;;17.30;99.90;;;;;;4994909;28;20041;-71
2022/10/28 03:51:19;;;;;;;25.00;5.20;;;17.30;99.90;;;;;;5012604;28;20033;-69
2022/10/28 03:53:44;;;;;;;16.05;5.10;;;17.20;99.90;;;;;;5012765;28;20018;-69
2022/10/28 03:56:11;;;;;;;20.80;5.25;;;17.20;99.90;;;;;;5012622;28;20026;-71
2022/10/28 03:58:36;;;;;;;24.80;5.15;;;17.30;99.90;;;;;;5012675;28;20439;-71
2022/10/28 04:01:03;;;;;;;17.00;5.15;;;17.20;99.90;;;;;;4994754;28;20116;-71
2022/10/28 04:03:28;;;;;;;21.25;5.28;;;17.00;99.90;;;;;;5012261;28;20364;-71
2022/10/28 04:05:54;;;;;;;20.83;5.28;;;17.00;99.90;;;;;;4994933;28;20036;-71
2022/10/28 04:08:20;;;;;;;15.63;5.13;;;17.20;99.90;;;;;;5014091;28;20385;-71
2022/10/28 04:10:47;;;;;;;20.52;5.57;;;17.10;99.90;;;;;;4998440;28;20034;-71
2022/10/28 04:13:14;;;;;;;28.95;5.22;;;17.10;99.90;;;;;;5016266;28;20022;-71
2022/10/28 04:15:39;;;;;;;19.98;5.03;;;17.10;99.90;;;;;;5016378;28;20033;-71
2022/10/28 04:18:05;;;;;;;19.38;4.97;;;17.10;99.90;;;;;;5015593;28;20382;-71
2022/10/28 04:20:31;;;;;;;15.82;4.60;;;17.20;99.90;;;;;;5016210;28;20028;-71
2022/10/28 04:22:57;;;;;;;19.35;5.28;;;17.10;99.90;;;;;;5015825;28;20029;-71
2022/10/28 04:25:25;;;;;;;21.35;5.40;;;17.10;99.90;;;;;;5016119;28;20382;-71
2022/10/28 04:27:50;;;;;;;23.10;5.32;;;17.10;99.90;;;;;;5015791;28;20026;-71
2022/10/28 04:30:16;;;;;;;15.85;4.45;;;17.00;99.90;;;;;;5015760;28;20156;-71
2022/10/28 04:32:43;;;;;;;13.88;4.43;;;17.00;99.90;;;;;;5015404;28;20398;-71
2022/10/28 04:35:10;;;;;;;30.42;5.13;;;17.10;99.90;;;;;;5015982;28;20034;-71
2022/10/28 04:37:36;;;;;;;11.88;4.55;;;17.10;99.90;;;;;;5015577;28;20108;-71
2022/10/28 04:40:03;;;;;;;15.65;4.35;;;17.00;99.90;;;;;;5015696;28;20061;-71
2022/10/28 04:42:28;;;;;;;17.63;5.88;;;17.00;99.90;;;;;;5015502;28;20148;-71
2022/10/28 04:44:54;;;;;;;20.92;5.28;;;17.00;99.90;;;;;;5015557;28;20149;-71
2022/10/28 04:47:21;;;;;;;16.10;5.10;;;17.10;99.90;;;;;;5015243;28;20037;-71
2022/10/28 04:49:47;;;;;;;16.77;4.65;;;17.00;99.90;;;;;;5015403;28;20124;-71
2022/10/28 04:52:13;;;;;;;20.15;4.32;;;16.80;99.90;;;;;;5015507;28;20081;-71
2022/10/28 04:54:39;;;;;;;15.27;4.80;;;16.80;99.90;;;;;;5015318;28;20093;-71
2022/10/28 04:57:04;;;;;;;22.20;4.97;;;16.80;99.90;;;;;;5015364;28;20144;-71
2022/10/28 04:59:30;;;;;;;24.83;5.10;;;16.80;99.90;;;;;;5015323;28;20033;-71
2022/10/28 05:01:56;;;;;;;18.67;5.15;;;16.90;99.90;;;;;;5014914;28;20103;-69
2022/10/28 05:04:22;;;;;;;21.20;4.80;;;17.00;99.90;;;;;;4997637;28;20034;-71
2022/10/28 05:06:48;;;;;;;17.58;5.20;;;17.20;99.90;;;;;;5015279;28;20419;-71
2022/10/28 05:09:13;;;;;;;22.42;5.53;;;17.00;99.90;;;;;;4997376;28;20104;-71
2022/10/28 05:11:39;;;;;;;22.23;4.82;;;17.10;99.90;;;;;;5015207;28;20123;-72
2022/10/28 05:14:05;;;;;;;20.00;6.50;;;17.20;99.90;;;;;;5015072;28;20040;-71
2022/10/28 05:16:31;;;;;;;21.15;5.30;;;17.10;99.90;;;;;;5014763;28;20026;-71
2022/10/28 05:18:57;;;;;;;23.23;4.75;;;17.10;99.90;;;;;;5014411;28;20026;-71
2022/10/28 05:21:23;;;;;;;27.67;5.90;;;17.10;99.90;;;;;;5015000;28;20411;-71
2022/10/28 05:23:49;;;;;;;21.88;5.35;;;17.10;99.90;;;;;;5014791;28;20026;-71
2022/10/28 05:26:14;;;;;;;18.58;4.93;;;17.20;99.90;;;;;;5014737;28;20497;-71
2022/10/28 05:28:40;;;;;;;27.45;4.60;;;17.20;99.90;;;;;;5014696;28;20022;-71
2022/10/28 05:31:06;;;;;;;27.45;6.20;;;17.20;99.90;;;;;;5014478;28;20126;-71
2022/10/28 05:33:32;;;;;;;23.65;5.85;;;17.30;99.90;;;;;;4996805;28;20105;-71
2022/10/28 05:35:58;;;;;;;26.00;5.75;;;17.30;99.90;;;;;;5014792;28;20038;-71
2022/10/28 05:38:25;;;;;;;21.38;5.55;;;17.10;99.90;;;;;;5014325;28;20072;-71
2022/10/28 05:40:51;;;;;;;16.70;4.72;;;17.20;99.90;;;;;;5014428;28;20026;-71
2022/10/28 05:43:16;;;;;;;20.83;5.30;;;17.00;99.90;;;;;;5014530;28;20026;-71
2022/10/28 05:45:42;;;;;;;18.00;5.35;;;17.00;99.90;;;;;;5014169;28;20508;-71
2022/10/28 05:48:08;;;;;;;16.27;5.57;;;17.10;99.90;;;;;;5014402;28;20033;-72
2022/10/28 05:50:33;;;;;;;17.38;5.68;;;17.00;99.90;;;;;;5014459;28;20037;-71
2022/10/28 05:53:00;;;;;;;16.83;4.68;;;17.10;99.90;;;;;;5014259;28;20116;-71
2022/10/28 05:55:28;;;;;;;27.00;5.85;;;16.90;99.90;;;;;;5014266;28;20032;-71
2022/10/28 05:57:54;;;;;;;15.50;5.55;;;16.90;99.90;;;;;;5013979;28;20117;-71
2022/10/28 06:00:23;;;;;;;17.92;6.13;;;16.90;99.90;;;;;;5014014;28;20021;-71
2022/10/28 06:02:49;;;;;;;19.15;5.30;;;16.70;99.90;;;;;;5001226;28;20045;-71
2022/10/28 06:05:15;;;;;;;17.13;5.00;;;16.70;99.90;;;;;;5013240;28;20105;-71
2022/10/28 06:07:41;;;;;;;18.85;6.70;;;16.80;99.90;;;;;;5013410;28;20056;-69
2022/10/28 06:10:08;;;;;;;18.42;5.95;;;16.80;99.90;;;;;;5012985;28;20430;-71
2022/10/28 06:12:35;;;;;;;23.25;5.45;;;16.80;99.90;;;;;;5012880;28;20048;-70
2022/10/28 06:15:00;;;;;;;22.02;5.97;;;16.80;99.90;;;;;;5012864;28;20487;-71
2022/10/28 06:17:26;;;;;;;22.15;5.15;;;16.60;99.90;;;;;;5012957;28;20057;-71
2022/10/28 06:19:52;;;;;;;16.80;5.20;;;16.70;99.90;;;;;;4995201;28;20101;-73
2022/10/28 06:22:18;;;;;;;27.33;6.03;;;16.70;99.90;;;;;;5012783;28;20394;-72
2022/10/28 06:24:44;;;;;;;26.63;5.70;;;16.70;99.90;;;;;;5012786;28;20022;-71
2022/10/28 06:27:10;;;;;;;29.25;5.95;;;16.70;99.90;;;;;;5012763;28;20485;-70
2022/10/28 06:29:35;;;;;;;16.30;5.22;;;16.70;99.90;;;;;;5012439;28;20104;-73
2022/10/28 06:32:01;;;;;;;25.50;5.97;;;16.60;99.90;;;;;;5011372;28;20069;-73
2022/10/28 06:34:27;;;;;;;23.45;5.38;;;16.60;99.90;;;;;;4995156;28;20033;-71
2022/10/28 06:36:53;;;;;;;21.27;5.28;;;16.70;99.90;;;;;;5012975;28;20033;-71
2022/10/28 06:39:19;;;;;;;21.05;5.53;;;16.70;99.90;;;;;;5012789;28;20033;-71
2022/10/28 06:41:44;;;;;;;26.40;5.25;;;16.80;99.90;;;;;;5012887;28;20026;-70
2022/10/28 06:44:10;;;;;;;23.17;5.47;;;16.80;99.90;;;;;;5011975;28;20045;-71
2022/10/28 06:46:36;;;;;;;22.52;5.75;;;16.80;99.90;;;;;;5012771;28;20022;-71
2022/10/28 06:49:03;;;;;;;32.20;5.60;;;16.80;99.90;;;;;;5012619;28;20057;-71
2022/10/28 06:51:30;;;;;;;18.13;5.53;;;16.70;99.90;;;;;;4994981;28;20037;-71
2022/10/28 06:53:57;;;;;;;18.15;5.38;;;16.70;99.90;;;;;;5012456;28;20029;-71
2022/10/28 06:56:23;;;;;;;23.73;5.22;;;16.80;99.90;;;;;;4965335;28;20504;-71
2022/10/28 06:58:53;;;;;;;18.85;5.90;;;16.90;99.90;;;;;;5012150;28;20470;-71
2022/10/28 07:01:20;;;;;;;26.67;5.63;;;16.90;99.90;;;;;;5010885;28;20022;-71
2022/10/28 07:03:46;;;;;;;15.88;5.15;;;16.80;99.90;;;;;;5011742;28;20038;-71
2022/10/28 07:06:12;;;;;;;21.05;5.00;;;16.80;99.90;;;;;;5012956;28;20026;-70
2022/10/28 07:08:38;;;;;;;22.27;5.03;;;16.80;99.90;;;;;;5002051;28;20109;-71
2022/10/28 07:11:04;;;;;;;19.45;5.50;;;16.80;99.90;;;;;;5011598;28;20144;-71
2022/10/28 07:13:30;;;;;;;23.05;4.70;;;17.00;99.90;;;;;;5012129;28;20455;-71
2022/10/28 07:15:58;;;;;;;20.40;5.57;;;17.00;99.90;;;;;;5012117;28;20113;-71
2022/10/28 07:18:27;;;;;;;37.38;6.30;;;17.00;99.90;;;;;;5012327;28;20061;-70
2022/10/28 07:20:56;;;;;;;19.35;5.07;;;17.10;99.90;;;;;;5012295;28;20030;-70
2022/10/28 07:23:22;;;;;;;27.27;5.75;;;17.20;99.90;;;;;;5011785;28;20037;-71
2022/10/28 07:25:52;;;;;;;14.93;6.03;;;17.20;99.90;;;;;;5011926;28;20029;-71
2022/10/28 07:28:19;;;;;;;22.27;5.10;;;17.30;99.90;;;;;;5009829;28;20501;-71
2022/10/28 07:30:44;;;;;;;26.67;6.57;;;17.30;99.90;;;;;;4994311;28;20120;-71
2022/10/28 07:33:10;;;;;;;20.80;6.00;;;17.40;99.90;;;;;;5012319;28;20431;-71
2022/10/28 07:35:36;;;;;;;22.63;6.28;;;17.50;99.90;;;;;;5011974;28;20034;-72
2022/10/28 07:38:02;;;;;;;20.05;5.43;;;17.40;99.90;;;;;;5011338;28;20049;-73
2022/10/28 07:40:28;;;;;;;20.58;5.75;;;17.40;99.90;;;;;;5010142;28;20033;-71
2022/10/28 07:42:54;;;;;;;26.70;5.97;;;17.40;99.90;;;;;;5013410;28;20030;-73
2022/10/28 07:45:20;;;;;;;21.58;6.00;;;17.50;99.90;;;;;;5016459;28;20084;-73
2022/10/28 07:47:45;;;;;;;23.08;5.70;;;17.40;99.90;;;;;;5015431;28;20066;-73
2022/10/28 07:50:11;;;;;;;28.58;6.32;;;17.50;99.90;;;;;;5016249;28;20433;-73
2022/10/28 07:52:37;;;;;;;25.20;5.75;;;17.60;99.90;;;;;;5016511;28;20026;-73
2022/10/28 07:55:05;;;;;;;18.58;5.32;;;17.70;99.90;;;;;;5016498;28;20030;-72
2022/10/28 07:57:30;;;;;;;20.80;5.75;;;17.80;99.90;;;;;;5016377;28;20038;-70
2022/10/28 07:59:56;;;;;;;25.52;6.00;;;17.90;99.90;;;;;;4998833;28;20040;-69
2022/10/28 08:02:23;;;;;;;27.33;6.40;;;17.90;99.90;;;;;;5026189;28;20116;-70
2022/10/28 08:04:50;;;;;;;25.65;6.65;;;18.00;99.90;;;;;;5001846;28;20382;-70
2022/10/28 08:07:17;;;;;;;19.55;5.35;;;18.00;99.90;;;;;;4998699;28;20044;-71
2022/10/28 08:09:43;;;;;;;22.52;5.82;;;18.00;99.90;;;;;;5016140;28;20502;-71
2022/10/28 08:12:12;;;;;;;23.48;5.43;;;18.00;99.90;;;;;;5016185;28;20046;-71
2022/10/28 08:14:38;;;;;;;28.85;5.30;;;18.10;99.90;;;;;;5015886;28;20030;-71
2022/10/28 08:17:04;;;;;;;29.00;6.68;;;18.20;99.90;;;;;;4998624;28;20105;-71
2022/10/28 08:19:30;;;;;;;24.63;6.13;;;18.30;99.90;;;;;;5016175;28;20038;-71
2022/10/28 08:21:56;;;;;;;33.88;5.68;;;18.30;99.90;;;;;;5016108;28;20032;-71
2022/10/28 08:24:22;;;;;;;23.58;5.38;;;18.40;99.90;;;;;;5015713;28;20113;-71
2022/10/28 08:26:48;;;;;;;25.48;6.15;;;18.30;99.90;;;;;;5016537;28;20545;-70
2022/10/28 08:29:14;;;;;;;26.65;6.20;;;18.40;99.90;;;;;;5015969;28;20030;-71
2022/10/28 08:31:40;;;;;;;32.35;5.50;;;18.50;99.90;;;;;;5016232;28;20111;-70
2022/10/28 08:34:06;;;;;;;22.98;5.53;;;18.60;99.90;;;;;;5010250;28;20339;-70
2022/10/28 08:36:32;;;;;;;26.52;5.55;;;18.40;99.90;;;;;;5014977;28;20382;-71
2022/10/28 08:39:00;;;;;;;20.05;6.30;;;18.50;99.90;;;;;;4997146;28;20022;-69
2022/10/28 08:41:38;;;;;;;20.92;5.82;;;18.50;99.90;;;;;;5015289;28;20049;-70
2022/10/28 08:44:41;;;;;;;25.65;5.80;;;18.60;99.90;;;;;;4994852;28;20169;-71
2022/10/28 08:47:32;;;;;;;26.45;5.43;;;18.80;99.90;;;;;;5009084;28;20061;-71
2022/10/28 08:50:09;;;;;;;23.27;5.28;;;18.80;99.90;;;;;;5010648;28;20034;-71
2022/10/28 08:52:51;;;;;;;25.80;5.65;;;19.00;99.90;;;;;;5014398;28;20044;-71
2022/10/28 08:55:29;;;;;;;27.80;5.47;;;19.10;99.90;;;;;;5014119;28;20030;-71
2022/10/28 08:58:01;;;;;;;29.05;6.00;;;19.20;99.90;;;;;;5009461;28;20360;-71
2022/10/28 09:00:32;;;;;;;20.70;5.00;;;19.20;99.90;;;;;;5012837;28;20049;-70
2022/10/28 09:03:10;;;;;;;17.92;4.95;;;19.40;99.90;;;;;;5013823;28;20482;-70
2022/10/28 09:05:41;;;;;;;16.88;4.70;;;19.70;99.90;;;;;;5012385;28;20037;-70
2022/10/28 09:08:21;;;;;;;24.95;5.45;;;19.90;99.90;;;;;;5003867;28;20419;-69
2022/10/28 09:11:25;;;;;;;22.02;5.60;;;20.00;99.90;;;;;;5009240;28;20131;-70
2022/10/28 09:14:18;;;;;;;22.20;4.70;;;20.30;99.90;;;;;;4951490;28;20038;-70
2022/10/28 09:16:53;;;;;;;18.80;5.13;;;20.90;99.90;;;;;;5008704;28;20022;-70
2022/10/28 09:19:38;;;;;;;31.27;5.03;;;20.90;99.90;;;;;;5013747;28;20033;-70
2022/10/28 09:22:35;;;;;;;23.90;5.20;;;20.80;99.90;;;;;;5010255;28;20038;-69
2022/10/28 09:25:12;;;;;;;20.33;4.63;;;20.90;99.90;;;;;;5014090;28;20102;-70
2022/10/28 09:27:56;;;;;;;25.58;5.30;;;21.10;99.90;;;;;;5008958;28;20045;-70
2022/10/28 09:30:28;;;;;;;24.52;4.68;;;21.20;99.90;;;;;;5008454;28;20034;-69
2022/10/28 09:33:17;;;;;;;19.50;4.38;;;21.30;99.90;;;;;;5012189;28;20030;-69
2022/10/28 09:35:46;;;;;;;16.27;4.18;;;21.50;99.90;;;;;;4996166;28;20033;-70
2022/10/28 09:38:36;;;;;;;20.50;5.40;;;21.50;99.90;;;;;;5013461;28;20493;-69
2022/10/28 09:41:19;;;;;;;20.38;4.57;;;21.70;99.90;;;;;;5011814;28;20026;-70
2022/10/28 09:43:51;;;;;;;22.27;4.40;;;21.80;99.90;;;;;;5013635;28;20521;-70
2022/10/28 09:46:17;;;;;;;18.50;3.65;;;21.80;99.90;;;;;;5010452;28;20033;-72
2022/10/28 09:48:47;;;;;;;24.17;4.82;;;21.80;99.90;;;;;;4988613;28;20046;-70
2022/10/28 09:51:29;;;;;;;22.85;4.90;;;21.60;99.90;;;;;;5011291;28;20025;-71
2022/10/28 09:53:59;;;;;;;21.73;5.07;;;21.70;99.90;;;;;;5005734;28;20478;-72
2022/10/28 09:56:27;;;;;;;15.82;4.93;;;22.00;99.90;;;;;;4996409;28;20022;-69
2022/10/28 09:58:56;;;;;;;30.98;4.97;;;22.10;99.90;;;;;;5008438;28;20072;-69
2022/10/28 10:01:21;;;;;;;15.30;4.07;;;22.30;99.90;;;;;;5014555;28;20034;-70
2022/10/28 10:03:49;;;;;;;21.45;4.60;;;22.10;99.90;;;;;;5012904;28;20044;-70
2022/10/28 10:06:45;;;;;;;21.20;6.28;;;22.10;99.90;;;;;;4995300;28;20034;-70
2022/10/28 10:09:20;;;;;;;19.30;4.53;;;22.30;99.90;;;;;;5000171;28;20041;-70
2022/10/28 10:11:47;;;;;;;20.83;4.55;;;22.50;99.90;;;;;;5014259;28;20045;-70
2022/10/28 10:14:30;;;;;;;22.80;4.30;;;22.60;99.90;;;;;;5013735;28;20037;-70
2022/10/28 10:16:58;;;;;;;22.40;5.00;;;23.00;99.90;;;;;;5013918;28;20479;-70
2022/10/28 10:19:23;;;;;;;23.75;4.93;;;22.90;99.90;;;;;;5013160;28;20072;-70
2022/10/28 10:21:54;;;;;;;19.58;4.47;;;22.50;99.90;;;;;;5013870;28;20490;-70
2022/10/28 10:24:23;;;;;;;17.17;6.45;;;22.20;99.90;;;;;;5013587;28;20026;-70
2022/10/28 10:26:51;;;;;;;17.55;4.78;;;22.10;99.90;;;;;;5013584;28;20156;-70
2022/10/28 10:29:17;;;;;;;13.48;4.30;;;21.90;99.90;;;;;;5013413;28;20032;-70
2022/10/28 10:31:45;;;;;;;24.27;4.30;;;21.80;99.90;;;;;;5013617;28;20034;-70
2022/10/28 10:34:29;;;;;;;27.92;4.88;;;21.80;99.90;;;;;;5013124;28;20037;-69
2022/10/28 10:37:04;;;;;;;21.63;4.10;;;21.80;99.90;;;;;;5090278;27;20457;-70
2022/10/28 10:39:36;;;;;;;20.42;4.35;;;21.60;99.90;;;;;;5089015;28;20415;-70
2022/10/28 10:42:13;;;;;;;11.80;4.05;;;21.60;99.90;;;;;;5090217;28;20707;-70
2022/10/28 10:44:41;;;;;;;17.90;4.32;;;21.80;99.90;;;;;;5089672;28;20027;-71
2022/10/28 10:47:06;;;;;;;27.45;4.95;;;21.60;99.90;;;;;;5089994;28;20032;-70
2022/10/28 10:49:34;;;;;;;27.30;4.95;;;21.80;99.90;;;;;;5089749;28;20478;-70
2022/10/28 10:52:08;;;;;;;18.17;4.32;;;21.70;99.90;;;;;;5090075;28;20065;-70
2022/10/28 10:54:36;;;;;;;21.88;5.25;;;21.70;99.90;;;;;;5088321;28;20033;-70
2022/10/28 10:57:21;;;;;;;29.45;4.82;;;21.70;99.90;;;;;;5089847;28;20388;-70
2022/10/28 10:59:51;;;;;;;18.55;4.40;;;21.70;99.90;;;;;;5089828;28;20016;-70
2022/10/28 11:02:34;;;;;;;20.67;5.43;;;21.50;99.90;;;;;;5089916;28;20496;-70
2022/10/28 11:05:06;;;;;;;21.15;4.93;;;21.50;99.90;;;;;;5089247;28;20476;-70
2022/10/28 11:07:32;;;;;;;27.80;5.07;;;21.70;99.90;;;;;;5089313;28;20510;-71
2022/10/28 11:09:59;;;;;;;18.88;5.50;;;21.70;99.90;;;;;;5089858;28;20020;-71
2022/10/28 11:12:27;;;;;;;15.88;4.53;;;21.60;99.90;;;;;;5089568;28;20524;-70
2022/10/28 11:15:18;;;;;;;25.58;5.88;;;21.40;99.90;;;;;;5089440;28;20036;-70
2022/10/28 11:17:59;;;;;;;19.97;5.57;;;21.50;99.90;;;;;;5089136;28;20036;-70
2022/10/28 11:21:04;;;;;;;13.82;4.65;;;21.60;99.90;;;;;;5089362;28;20476;-71
2022/10/28 11:24:06;;;;;;;20.00;4.97;;;21.90;99.90;;;;;;5089519;28;20426;-70
2022/10/28 11:26:43;;;;;;;16.50;3.78;;;22.10;99.90;;;;;;5089566;28;20456;-71
2022/10/28 11:29:14;;;;;;;19.17;4.50;;;22.20;99.90;;;;;;5088316;28;20490;-71
2022/10/28 11:31:55;;;;;;;20.42;4.55;;;22.20;99.90;;;;;;5089049;28;20107;-70
2022/10/28 11:34:23;;;;;;;14.88;4.38;;;22.30;99.90;;;;;;5087924;28;20032;-71
2022/10/28 11:37:22;;;;;;;19.65;4.35;;;22.50;99.90;;;;;;5087454;28;20044;-71
2022/10/28 11:40:02;;;;;;;22.83;4.50;;;21.80;99.90;;;;;;5070472;28;20043;-70
2022/10/28 11:42:43;;;;;;;20.33;4.88;;;21.80;99.90;;;;;;5087344;28;20020;-71
2022/10/28 11:45:12;;;;;;;16.70;4.32;;;21.90;99.90;;;;;;5087744;28;20017;-71
2022/10/28 11:47:49;;;;;;;31.02;4.55;;;22.00;99.90;;;;;;5077940;28;20028;-70
2022/10/28 11:50:24;;;;;;;19.13;4.20;;;22.00;99.90;;;;;;5075641;28;20033;-71
2022/10/28 11:53:09;;;;;;;19.02;4.13;;;22.00;99.90;;;;;;5075210;28;20032;-71
2022/10/28 11:55:58;;;;;;;19.58;4.65;;;21.70;99.90;;;;;;5073483;28;20137;-71
2022/10/28 11:58:54;;;;;;;19.63;5.05;;;21.80;99.90;;;;;;5075316;28;20035;-71
2022/10/28 12:01:39;;;;;;;15.38;4.13;;;21.90;99.90;;;;;;5074659;28;20077;-70
2022/10/28 12:04:23;;;;;;;12.48;4.38;;;22.10;99.90;;;;;;5075035;28;20121;-71
2022/10/28 12:07:12;;;;;;;22.80;4.93;;;22.10;99.90;;;;;;5073643;28;20492;-71
2022/10/28 12:09:55;;;;;;;14.25;3.75;;;22.00;99.90;;;;;;5073762;28;20028;-71
2022/10/28 12:12:27;;;;;;;15.82;4.35;;;22.10;99.90;;;;;;5075025;28;20472;-71
2022/10/28 12:15:10;;;;;;;25.75;4.60;;;21.80;99.90;;;;;;5074699;28;20056;-70
2022/10/28 12:17:46;;;;;;;28.40;5.43;;;22.10;99.90;;;;;;5074494;28;20033;-71
2022/10/28 12:20:22;;;;;;;20.73;4.18;;;22.40;99.90;;;;;;5075015;28;20029;-70
2022/10/28 12:22:52;;;;;;;13.85;3.40;;;22.20;99.90;;;;;;5074615;28;20036;-71
2022/10/28 12:25:23;;;;;;;22.37;4.50;;;21.80;99.90;;;;;;5073519;28;20448;-70
2022/10/28 12:27:52;;;;;;;11.80;3.72;;;21.90;99.90;;;;;;5074418;28;20033;-70
2022/10/28 12:30:22;;;;;;;22.15;4.35;;;22.20;99.90;;;;;;5074208;28;20024;-70
2022/10/28 12:32:58;;;;;;;11.68;4.50;;;22.10;99.90;;;;;;5074380;28;20031;-70
2022/10/28 12:35:30;;;;;;;11.55;3.63;;;22.20;99.90;;;;;;5065633;28;20386;-71
2022/10/28 12:38:14;;;;;;;18.48;3.90;;;22.60;99.90;;;;;;5074363;28;20036;-71
2022/10/28 12:40:52;;;;;;;16.50;4.40;;;22.50;99.90;;;;;;5074417;28;20016;-70
2022/10/28 12:43:25;;;;;;;19.08;4.10;;;22.30;99.90;;;;;;5074287;28;20024;-71
2022/10/28 12:45:55;;;;;;;16.10;4.72;;;22.50;99.90;;;;;;5074031;28;20039;-71
2022/10/28 12:48:38;;;;;;;22.50;4.78;;;22.60;99.90;;;;;;5074095;28;20528;-71
2022/10/28 12:51:13;;;;;;;21.15;4.10;;;22.80;99.90;;;;;;5074119;28;20115;-70
2022/10/28 12:54:05;;;;;;;16.58;4.43;;;22.90;99.90;;;;;;5073990;28;20071;-71
2022/10/28 12:56:36;;;;;;;20.33;4.40;;;22.80;99.90;;;;;;5054123;28;20038;-70
2022/10/28 12:59:14;;;;;;;19.08;4.30;;;23.20;99.90;;;;;;5050942;28;20044;-70
2022/10/28 13:01:43;;;;;;;23.25;4.65;;;22.80;99.90;;;;;;5073990;28;20476;-70